sensor_id;sensor_type;location;lat;lon;timestamp;pressure;altitude;pressure_sealevel;temperature;humidity
10310;BME280;5200;43.236;27.986;2023-04-08T00:02:02;100441.34;;;6.01;82.77
10310;BME280;5200;43.236;27.986;2023-04-08T00:04:29;100453.91;;;6.08;81.53
10310;BME280;5200;43.236;27.986;2023-04-08T00:06:56;100444.69;;;6.03;81.23
10310;BME280;5200;43.236;27.986;2023-04-08T00:09:23;100420.06;;;5.92;80.82
10310;BME280;5200;43.236;27.986;2023-04-08T00:11:51;100440.00;;;6.08;81.09
10310;BME280;5200;43.236;27.986;2023-04-08T00:14:18;100445.97;;;6.10;80.73
10310;BME280;5200;43.236;27.986;2023-04-08T00:16:45;100440.09;;;6.06;79.68
10310;BME280;5200;43.236;27.986;2023-04-08T00:19:12;100446.72;;;6.12;79.13
10310;BME280;5200;43.236;27.986;2023-04-08T00:21:39;100421.00;;;5.91;78.31
10310;BME280;5200;43.236;27.986;2023-04-08T00:24:05;100444.28;;;6.09;78.28
10310;BME280;5200;43.236;27.986;2023-04-08T00:26:32;100447.25;;;6.17;77.45
10310;BME280;5200;43.236;27.986;2023-04-08T00:29:00;100420.44;;;6.01;76.16
10310;BME280;5200;43.236;27.986;2023-04-08T00:31:27;100415.22;;;6.01;74.08
10310;BME280;5200;43.236;27.986;2023-04-08T00:33:54;100421.19;;;6.03;72.83
10310;BME280;5200;43.236;27.986;2023-04-08T00:36:21;100442.25;;;6.14;72.88
10310;BME280;5200;43.236;27.986;2023-04-08T00:38:48;100419.31;;;6.05;72.21
10310;BME280;5200;43.236;27.986;2023-04-08T00:41:15;100447.88;;;6.21;72.33
10310;BME280;5200;43.236;27.986;2023-04-08T00:43:41;100444.34;;;6.22;72.40
10310;BME280;5200;43.236;27.986;2023-04-08T00:46:09;100448.53;;;6.24;71.43
10310;BME280;5200;43.236;27.986;2023-04-08T00:48:36;100425.28;;;6.07;71.42
10310;BME280;5200;43.236;27.986;2023-04-08T00:51:03;100439.75;;;6.25;71.49
10310;BME280;5200;43.236;27.986;2023-04-08T00:53:30;100444.56;;;6.19;72.01
10310;BME280;5200;43.236;27.986;2023-04-08T00:55:57;100426.31;;;6.04;73.30
10310;BME280;5200;43.236;27.986;2023-04-08T00:58:26;100447.06;;;6.20;73.80
10310;BME280;5200;43.236;27.986;2023-04-08T01:00:57;100417.94;;;5.99;74.54
10310;BME280;5200;43.236;27.986;2023-04-08T01:03:35;100439.06;;;6.09;75.04
10310;BME280;5200;43.236;27.986;2023-04-08T01:06:09;100447.66;;;6.11;75.32
10310;BME280;5200;43.236;27.986;2023-04-08T01:08:40;100421.75;;;5.93;74.76
10310;BME280;5200;43.236;27.986;2023-04-08T01:11:10;100417.84;;;5.86;74.81
10310;BME280;5200;43.236;27.986;2023-04-08T01:13:39;100447.41;;;6.01;75.17
10310;BME280;5200;43.236;27.986;2023-04-08T01:16:09;100450.13;;;6.00;74.77
10310;BME280;5200;43.236;27.986;2023-04-08T01:18:37;100414.69;;;5.81;74.88
10310;BME280;5200;43.236;27.986;2023-04-08T01:21:05;100418.22;;;5.80;74.76
10310;BME280;5200;43.236;27.986;2023-04-08T01:23:53;100448.63;;;5.96;74.99
10310;BME280;5200;43.236;27.986;2023-04-08T01:26:25;100439.38;;;5.90;75.24
10310;BME280;5200;43.236;27.986;2023-04-08T01:28:53;100452.00;;;5.98;75.82
10310;BME280;5200;43.236;27.986;2023-04-08T01:31:23;100421.66;;;5.81;75.93
10310;BME280;5200;43.236;27.986;2023-04-08T01:33:50;100451.78;;;6.01;76.86
10310;BME280;5200;43.236;27.986;2023-04-08T01:36:19;100449.56;;;5.95;77.14
10310;BME280;5200;43.236;27.986;2023-04-08T01:38:46;100425.72;;;5.72;77.77
10310;BME280;5200;43.236;27.986;2023-04-08T01:41:16;100452.53;;;5.88;78.17
10310;BME280;5200;43.236;27.986;2023-04-08T01:43:45;100449.72;;;5.91;78.25
10310;BME280;5200;43.236;27.986;2023-04-08T01:46:14;100421.97;;;5.76;78.41
10310;BME280;5200;43.236;27.986;2023-04-08T01:48:41;100433.53;;;5.86;78.77
10310;BME280;5200;43.236;27.986;2023-04-08T01:51:10;100413.22;;;5.77;78.68
10310;BME280;5200;43.236;27.986;2023-04-08T01:53:38;100445.91;;;5.97;79.12
10310;BME280;5200;43.236;27.986;2023-04-08T01:56:08;100446.94;;;5.95;79.66
10310;BME280;5200;43.236;27.986;2023-04-08T01:58:40;100443.75;;;5.89;80.61
10310;BME280;5200;43.236;27.986;2023-04-08T02:01:12;100446.94;;;5.80;81.53
10310;BME280;5200;43.236;27.986;2023-04-08T02:03:41;100443.78;;;5.75;82.73
10310;BME280;5200;43.236;27.986;2023-04-08T02:06:09;100443.63;;;5.64;83.49
10310;BME280;5200;43.236;27.986;2023-04-08T02:08:36;100419.03;;;5.39;85.15
10310;BME280;5200;43.236;27.986;2023-04-08T02:11:03;100425.47;;;5.48;85.04
10310;BME280;5200;43.236;27.986;2023-04-08T02:13:31;100391.66;;;5.32;84.19
10310;BME280;5200;43.236;27.986;2023-04-08T02:16:03;100421.84;;;5.50;82.54
10310;BME280;5200;43.236;27.986;2023-04-08T02:18:33;100443.72;;;5.62;82.39
10310;BME280;5200;43.236;27.986;2023-04-08T02:21:14;100428.81;;;5.50;82.31
10310;BME280;5200;43.236;27.986;2023-04-08T02:23:45;100418.28;;;5.51;81.74
10310;BME280;5200;43.236;27.986;2023-04-08T02:26:15;100428.25;;;5.59;80.20
10310;BME280;5200;43.236;27.986;2023-04-08T02:28:43;100454.97;;;5.77;79.91
10310;BME280;5200;43.236;27.986;2023-04-08T02:31:11;100426.28;;;5.63;79.17
10310;BME280;5200;43.236;27.986;2023-04-08T02:33:41;100454.97;;;5.77;79.63
10310;BME280;5200;43.236;27.986;2023-04-08T02:36:09;100436.47;;;5.53;80.43
10310;BME280;5200;43.236;27.986;2023-04-08T02:38:37;100430.59;;;5.49;81.61
10310;BME280;5200;43.236;27.986;2023-04-08T02:41:04;100449.25;;;5.58;82.70
10310;BME280;5200;43.236;27.986;2023-04-08T02:43:31;100468.69;;;5.66;83.88
10310;BME280;5200;43.236;27.986;2023-04-08T02:45:58;100444.59;;;5.48;84.88
10310;BME280;5200;43.236;27.986;2023-04-08T02:48:27;100446.44;;;5.46;86.21
10310;BME280;5200;43.236;27.986;2023-04-08T02:50:55;100475.34;;;5.58;86.34
10310;BME280;5200;43.236;27.986;2023-04-08T02:53:23;100468.06;;;5.48;86.73
10310;BME280;5200;43.236;27.986;2023-04-08T02:55:50;100476.25;;;5.42;87.63
10310;BME280;5200;43.236;27.986;2023-04-08T02:58:17;100480.94;;;5.37;87.93
10310;BME280;5200;43.236;27.986;2023-04-08T03:00:44;100487.44;;;5.30;87.82
10310;BME280;5200;43.236;27.986;2023-04-08T03:03:11;100484.63;;;5.19;88.26
10310;BME280;5200;43.236;27.986;2023-04-08T03:05:38;100474.09;;;5.06;89.04
10310;BME280;5200;43.236;27.986;2023-04-08T03:08:06;100478.00;;;4.99;89.76
10310;BME280;5200;43.236;27.986;2023-04-08T03:10:33;100468.47;;;4.83;90.61
10310;BME280;5200;43.236;27.986;2023-04-08T03:13:00;100486.63;;;4.85;91.61
10310;BME280;5200;43.236;27.986;2023-04-08T03:15:26;100492.59;;;4.87;91.69
10310;BME280;5200;43.236;27.986;2023-04-08T03:17:53;100493.16;;;4.92;91.56
10310;BME280;5200;43.236;27.986;2023-04-08T03:20:20;100489.31;;;4.83;92.70
10310;BME280;5200;43.236;27.986;2023-04-08T03:22:47;100497.06;;;4.85;92.45
10310;BME280;5200;43.236;27.986;2023-04-08T03:25:15;100504.66;;;4.74;94.05
10310;BME280;5200;43.236;27.986;2023-04-08T03:27:42;100492.91;;;4.66;94.82
10310;BME280;5200;43.236;27.986;2023-04-08T03:30:09;100496.38;;;4.51;97.87
10310;BME280;5200;43.236;27.986;2023-04-08T03:32:36;100503.03;;;4.41;98.84
10310;BME280;5200;43.236;27.986;2023-04-08T03:35:03;100502.53;;;4.34;100.00
10310;BME280;5200;43.236;27.986;2023-04-08T03:37:30;100499.09;;;4.34;100.00
10310;BME280;5200;43.236;27.986;2023-04-08T03:39:57;100472.63;;;4.26;100.00
10310;BME280;5200;43.236;27.986;2023-04-08T03:42:25;100470.94;;;4.24;100.00
10310;BME280;5200;43.236;27.986;2023-04-08T03:44:52;100499.34;;;4.45;100.00
10310;BME280;5200;43.236;27.986;2023-04-08T03:47:19;100475.72;;;4.32;100.00
10310;BME280;5200;43.236;27.986;2023-04-08T03:49:45;100520.06;;;4.62;100.00
10310;BME280;5200;43.236;27.986;2023-04-08T03:52:12;100482.00;;;4.44;100.00
10310;BME280;5200;43.236;27.986;2023-04-08T03:54:39;100507.22;;;4.59;100.00
10310;BME280;5200;43.236;27.986;2023-04-08T03:57:06;100498.66;;;4.41;100.00
10310;BME280;5200;43.236;27.986;2023-04-08T03:59:34;100530.44;;;4.48;100.00
10310;BME280;5200;43.236;27.986;2023-04-08T04:02:01;100528.06;;;4.43;100.00
10310;BME280;5200;43.236;27.986;2023-04-08T04:04:28;100528.25;;;4.40;100.00
10310;BME280;5200;43.236;27.986;2023-04-08T04:06:55;100532.28;;;4.46;100.00
10310;BME280;5200;43.236;27.986;2023-04-08T04:09:22;100488.25;;;4.26;100.00
10310;BME280;5200;43.236;27.986;2023-04-08T04:11:49;100492.34;;;4.45;100.00
10310;BME280;5200;43.236;27.986;2023-04-08T04:14:16;100531.56;;;4.74;100.00
10310;BME280;5200;43.236;27.986;2023-04-08T04:16:44;100535.66;;;4.94;100.00
10310;BME280;5200;43.236;27.986;2023-04-08T04:19:11;100506.19;;;4.92;100.00
10310;BME280;5200;43.236;27.986;2023-04-08T04:21:37;100540.41;;;5.46;100.00
10310;BME280;5200;43.236;27.986;2023-04-08T04:24:04;100546.38;;;5.91;100.00
10310;BME280;5200;43.236;27.986;2023-04-08T04:26:31;100546.16;;;6.38;100.00
10310;BME280;5200;43.236;27.986;2023-04-08T04:28:58;100551.22;;;6.81;100.00
10310;BME280;5200;43.236;27.986;2023-04-08T04:31:25;100515.56;;;7.05;100.00
10310;BME280;5200;43.236;27.986;2023-04-08T04:33:53;100522.19;;;7.49;100.00
10310;BME280;5200;43.236;27.986;2023-04-08T04:36:20;100541.63;;;7.96;100.00
10310;BME280;5200;43.236;27.986;2023-04-08T04:38:48;100515.22;;;7.99;100.00
10310;BME280;5200;43.236;27.986;2023-04-08T04:41:15;100512.00;;;8.20;100.00
10310;BME280;5200;43.236;27.986;2023-04-08T04:43:41;100512.81;;;8.33;100.00
10310;BME280;5200;43.236;27.986;2023-04-08T04:46:08;100506.28;;;8.52;98.12
10310;BME280;5200;43.236;27.986;2023-04-08T04:48:35;100525.69;;;8.73;95.14
10310;BME280;5200;43.236;27.986;2023-04-08T04:51:04;100528.94;;;8.88;90.60
10310;BME280;5200;43.236;27.986;2023-04-08T04:53:32;100512.09;;;8.79;91.02
10310;BME280;5200;43.236;27.986;2023-04-08T04:55:58;100524.59;;;9.11;90.78
10310;BME280;5200;43.236;27.986;2023-04-08T04:58:26;100530.13;;;9.30;90.75
10310;BME280;5200;43.236;27.986;2023-04-08T05:00:53;100535.75;;;9.37;88.25
10310;BME280;5200;43.236;27.986;2023-04-08T05:03:20;100529.56;;;9.49;86.47
10310;BME280;5200;43.236;27.986;2023-04-08T05:05:50;100511.44;;;9.69;85.09
10310;BME280;5200;43.236;27.986;2023-04-08T05:08:18;100529.09;;;10.01;85.88
10310;BME280;5200;43.236;27.986;2023-04-08T05:10:45;100545.22;;;10.07;85.31
10310;BME280;5200;43.236;27.986;2023-04-08T05:13:14;100540.88;;;10.18;83.28
10310;BME280;5200;43.236;27.986;2023-04-08T05:15:41;100512.75;;;9.97;84.31
10310;BME280;5200;43.236;27.986;2023-04-08T05:18:08;100520.72;;;10.07;84.42
10310;BME280;5200;43.236;27.986;2023-04-08T05:20:35;100533.25;;;10.26;85.74
10310;BME280;5200;43.236;27.986;2023-04-08T05:23:02;100546.56;;;10.68;82.99
10310;BME280;5200;43.236;27.986;2023-04-08T05:25:30;100526.44;;;10.67;82.84
10310;BME280;5200;43.236;27.986;2023-04-08T05:27:57;100519.75;;;10.63;83.39
10310;BME280;5200;43.236;27.986;2023-04-08T05:30:24;100519.47;;;10.77;82.64
10310;BME280;5200;43.236;27.986;2023-04-08T05:32:50;100533.28;;;10.90;81.36
10310;BME280;5200;43.236;27.986;2023-04-08T05:35:17;100550.56;;;11.04;81.63
10310;BME280;5200;43.236;27.986;2023-04-08T05:37:44;100556.25;;;11.20;82.41
10310;BME280;5200;43.236;27.986;2023-04-08T05:40:11;100525.22;;;11.24;82.90
10310;BME280;5200;43.236;27.986;2023-04-08T05:42:39;100550.38;;;11.38;82.69
10310;BME280;5200;43.236;27.986;2023-04-08T05:45:07;100549.09;;;11.32;82.71
10310;BME280;5200;43.236;27.986;2023-04-08T05:47:34;100551.16;;;11.29;83.83
10310;BME280;5200;43.236;27.986;2023-04-08T05:50:01;100557.34;;;11.39;84.11
10310;BME280;5200;43.236;27.986;2023-04-08T05:52:28;100556.13;;;11.43;84.01
10310;BME280;5200;43.236;27.986;2023-04-08T05:54:55;100545.44;;;11.45;84.47
10310;BME280;5200;43.236;27.986;2023-04-08T05:57:21;100512.22;;;11.32;83.53
10310;BME280;5200;43.236;27.986;2023-04-08T05:59:50;100527.91;;;11.55;83.04
10310;BME280;5200;43.236;27.986;2023-04-08T06:02:17;100553.59;;;11.93;81.72
10310;BME280;5200;43.236;27.986;2023-04-08T06:04:44;100567.22;;;11.98;81.40
10310;BME280;5200;43.236;27.986;2023-04-08T06:07:11;100561.44;;;12.04;82.80
10310;BME280;5200;43.236;27.986;2023-04-08T06:09:38;100559.25;;;12.29;80.62
10310;BME280;5200;43.236;27.986;2023-04-08T06:12:05;100519.41;;;12.22;78.33
10310;BME280;5200;43.236;27.986;2023-04-08T06:14:31;100557.34;;;12.41;77.38
10310;BME280;5200;43.236;27.986;2023-04-08T06:17:00;100559.34;;;12.58;76.38
10310;BME280;5200;43.236;27.986;2023-04-08T06:19:26;100559.19;;;12.69;77.30
10310;BME280;5200;43.236;27.986;2023-04-08T06:21:53;100562.13;;;12.66;74.00
10310;BME280;5200;43.236;27.986;2023-04-08T06:24:23;100560.47;;;12.65;73.02
10310;BME280;5200;43.236;27.986;2023-04-08T06:26:51;100561.81;;;12.69;73.60
10310;BME280;5200;43.236;27.986;2023-04-08T06:29:18;100562.13;;;12.66;74.01
10310;BME280;5200;43.236;27.986;2023-04-08T06:31:45;100568.47;;;12.35;73.67
10310;BME280;5200;43.236;27.986;2023-04-08T06:34:13;100563.91;;;12.06;73.80
10310;BME280;5200;43.236;27.986;2023-04-08T06:36:40;100569.22;;;12.16;74.68
10310;BME280;5200;43.236;27.986;2023-04-08T06:39:08;100539.47;;;12.04;72.47
10310;BME280;5200;43.236;27.986;2023-04-08T06:41:35;100553.28;;;11.87;73.83
10310;BME280;5200;43.236;27.986;2023-04-08T06:44:02;100560.69;;;11.93;70.20
10310;BME280;5200;43.236;27.986;2023-04-08T06:46:28;100570.03;;;12.07;72.30
10310;BME280;5200;43.236;27.986;2023-04-08T06:48:55;100536.97;;;11.93;70.31
10310;BME280;5200;43.236;27.986;2023-04-08T06:51:23;100569.47;;;12.03;72.21
10310;BME280;5200;43.236;27.986;2023-04-08T06:53:52;100563.00;;;12.26;72.55
10310;BME280;5200;43.236;27.986;2023-04-08T06:56:19;100572.34;;;12.31;71.93
10310;BME280;5200;43.236;27.986;2023-04-08T06:58:47;100578.28;;;12.23;71.07
10310;BME280;5200;43.236;27.986;2023-04-08T07:01:14;100570.56;;;12.00;73.59
10310;BME280;5200;43.236;27.986;2023-04-08T07:03:42;100559.44;;;11.97;74.29
10310;BME280;5200;43.236;27.986;2023-04-08T07:06:09;100570.19;;;12.15;74.07
10310;BME280;5200;43.236;27.986;2023-04-08T07:08:37;100571.34;;;12.32;75.60
10310;BME280;5200;43.236;27.986;2023-04-08T07:11:04;100575.00;;;12.50;71.82
10310;BME280;5200;43.236;27.986;2023-04-08T07:13:31;100545.13;;;12.40;74.16
10310;BME280;5200;43.236;27.986;2023-04-08T07:15:58;100574.41;;;12.37;71.23
10310;BME280;5200;43.236;27.986;2023-04-08T07:18:24;100565.34;;;12.20;73.33
10310;BME280;5200;43.236;27.986;2023-04-08T07:20:52;100588.13;;;12.11;76.69
10310;BME280;5200;43.236;27.986;2023-04-08T07:23:19;100588.53;;;11.85;74.92
10310;BME280;5200;43.236;27.986;2023-04-08T07:25:47;100578.44;;;11.70;78.63
10310;BME280;5200;43.236;27.986;2023-04-08T07:28:14;100595.03;;;12.12;78.16
10310;BME280;5200;43.236;27.986;2023-04-08T07:30:41;100564.78;;;12.07;77.50
10310;BME280;5200;43.236;27.986;2023-04-08T07:33:08;100601.50;;;12.39;75.38
10310;BME280;5200;43.236;27.986;2023-04-08T07:35:34;100607.91;;;12.46;74.44
10310;BME280;5200;43.236;27.986;2023-04-08T07:38:02;100578.19;;;12.44;75.53
10310;BME280;5200;43.236;27.986;2023-04-08T07:40:29;100612.00;;;12.19;78.27
10310;BME280;5200;43.236;27.986;2023-04-08T07:42:57;100612.06;;;11.77;80.95
10310;BME280;5200;43.236;27.986;2023-04-08T07:45:24;100581.22;;;11.47;81.24
10310;BME280;5200;43.236;27.986;2023-04-08T07:47:50;100604.09;;;11.89;82.20
10310;BME280;5200;43.236;27.986;2023-04-08T07:50:17;100603.78;;;12.13;79.82
10310;BME280;5200;43.236;27.986;2023-04-08T07:52:44;100607.53;;;12.10;76.84
10310;BME280;5200;43.236;27.986;2023-04-08T07:55:11;100605.56;;;12.02;77.03
10310;BME280;5200;43.236;27.986;2023-04-08T07:57:38;100605.19;;;11.86;79.62
10310;BME280;5200;43.236;27.986;2023-04-08T08:00:07;100604.19;;;12.08;78.28
10310;BME280;5200;43.236;27.986;2023-04-08T08:02:34;100605.56;;;12.43;78.83
10310;BME280;5200;43.236;27.986;2023-04-08T08:05:01;100585.59;;;12.10;76.26
10310;BME280;5200;43.236;27.986;2023-04-08T08:07:28;100599.16;;;12.36;79.00
10310;BME280;5200;43.236;27.986;2023-04-08T08:09:55;100607.66;;;12.09;76.71
10310;BME280;5200;43.236;27.986;2023-04-08T08:12:29;100602.88;;;11.72;81.68
10310;BME280;5200;43.236;27.986;2023-04-08T08:14:57;100594.28;;;11.49;85.44
10310;BME280;5200;43.236;27.986;2023-04-08T08:17:28;100620.03;;;11.66;84.88
10310;BME280;5200;43.236;27.986;2023-04-08T08:19:58;100591.81;;;11.57;85.65
10310;BME280;5200;43.236;27.986;2023-04-08T08:22:25;100614.53;;;11.69;85.94
10310;BME280;5200;43.236;27.986;2023-04-08T08:24:55;100580.09;;;11.71;84.41
10310;BME280;5200;43.236;27.986;2023-04-08T08:27:22;100610.75;;;11.41;84.73
10310;BME280;5200;43.236;27.986;2023-04-08T08:29:49;100598.66;;;10.85;88.11
10310;BME280;5200;43.236;27.986;2023-04-08T08:32:16;100611.41;;;10.57;90.23
10310;BME280;5200;43.236;27.986;2023-04-08T08:34:45;100610.94;;;10.41;93.03
10310;BME280;5200;43.236;27.986;2023-04-08T08:37:12;100624.34;;;10.49;96.54
10310;BME280;5200;43.236;27.986;2023-04-08T08:39:38;100625.00;;;10.63;95.01
10310;BME280;5200;43.236;27.986;2023-04-08T08:42:05;100612.50;;;10.98;92.13
10310;BME280;5200;43.236;27.986;2023-04-08T08:44:33;100627.94;;;11.66;84.16
10310;BME280;5200;43.236;27.986;2023-04-08T08:47:00;100631.25;;;12.10;77.94
10310;BME280;5200;43.236;27.986;2023-04-08T08:49:27;100619.41;;;12.25;74.21
10310;BME280;5200;43.236;27.986;2023-04-08T08:51:56;100624.22;;;12.20;74.76
10310;BME280;5200;43.236;27.986;2023-04-08T08:54:23;100627.59;;;12.01;79.13
10310;BME280;5200;43.236;27.986;2023-04-08T08:56:52;100629.97;;;11.95;78.38
10310;BME280;5200;43.236;27.986;2023-04-08T08:59:19;100623.81;;;11.73;75.41
10310;BME280;5200;43.236;27.986;2023-04-08T09:01:46;100619.47;;;11.41;80.99
10310;BME280;5200;43.236;27.986;2023-04-08T09:04:14;100637.00;;;11.10;79.66
10310;BME280;5200;43.236;27.986;2023-04-08T09:06:43;100642.47;;;11.39;81.18
10310;BME280;5200;43.236;27.986;2023-04-08T09:09:12;100633.69;;;11.71;80.41
10310;BME280;5200;43.236;27.986;2023-04-08T09:11:41;100642.22;;;12.05;79.13
10310;BME280;5200;43.236;27.986;2023-04-08T09:14:19;100650.34;;;12.23;79.17
10310;BME280;5200;43.236;27.986;2023-04-08T09:16:46;100643.16;;;12.25;77.77
10310;BME280;5200;43.236;27.986;2023-04-08T09:19:12;100648.50;;;12.14;79.26
10310;BME280;5200;43.236;27.986;2023-04-08T09:21:39;100645.72;;;12.16;78.68
10310;BME280;5200;43.236;27.986;2023-04-08T09:24:07;100640.63;;;12.24;78.98
10310;BME280;5200;43.236;27.986;2023-04-08T09:26:36;100647.31;;;12.28;79.70
10310;BME280;5200;43.236;27.986;2023-04-08T09:29:05;100635.38;;;12.34;80.03
10310;BME280;5200;43.236;27.986;2023-04-08T09:31:33;100645.19;;;12.62;77.93
10310;BME280;5200;43.236;27.986;2023-04-08T09:34:09;100656.16;;;12.67;77.12
10310;BME280;5200;43.236;27.986;2023-04-08T09:36:36;100649.88;;;12.49;77.63
10310;BME280;5200;43.236;27.986;2023-04-08T09:39:03;100649.28;;;12.05;79.45
10310;BME280;5200;43.236;27.986;2023-04-08T09:41:33;100648.84;;;12.00;79.55
10310;BME280;5200;43.236;27.986;2023-04-08T09:44:03;100638.53;;;11.97;81.69
10310;BME280;5200;43.236;27.986;2023-04-08T09:46:32;100646.53;;;11.85;79.01
10310;BME280;5200;43.236;27.986;2023-04-08T09:49:05;100641.44;;;11.73;80.90
10310;BME280;5200;43.236;27.986;2023-04-08T09:51:38;100637.31;;;11.59;82.20
10310;BME280;5200;43.236;27.986;2023-04-08T09:54:12;100644.09;;;11.94;80.75
10310;BME280;5200;43.236;27.986;2023-04-08T09:56:43;100640.59;;;12.14;80.34
10310;BME280;5200;43.236;27.986;2023-04-08T09:59:16;100642.78;;;12.09;80.00
10310;BME280;5200;43.236;27.986;2023-04-08T10:01:50;100643.59;;;12.00;81.19
10310;BME280;5200;43.236;27.986;2023-04-08T10:04:20;100629.09;;;11.94;81.05
10310;BME280;5200;43.236;27.986;2023-04-08T10:06:53;100636.59;;;12.30;80.51
10310;BME280;5200;43.236;27.986;2023-04-08T10:09:23;100636.72;;;12.18;80.88
10310;BME280;5200;43.236;27.986;2023-04-08T10:11:50;100634.22;;;12.17;81.29
10310;BME280;5200;43.236;27.986;2023-04-08T10:14:19;100644.00;;;12.36;79.61
10310;BME280;5200;43.236;27.986;2023-04-08T10:16:46;100634.63;;;12.62;77.04
10310;BME280;5200;43.236;27.986;2023-04-08T10:19:37;100635.22;;;12.66;76.01
10310;BME280;5200;43.236;27.986;2023-04-08T10:25:27;100637.22;;;13.13;74.80
10310;BME280;5200;43.236;27.986;2023-04-08T10:27:54;100630.00;;;13.44;73.22
10310;BME280;5200;43.236;27.986;2023-04-08T10:30:40;100622.75;;;13.46;71.84
10310;BME280;5200;43.236;27.986;2023-04-08T10:33:12;100619.97;;;13.28;74.29
10310;BME280;5200;43.236;27.986;2023-04-08T10:35:41;100614.97;;;13.44;73.17
10310;BME280;5200;43.236;27.986;2023-04-08T10:38:11;100607.19;;;13.43;72.59
10310;BME280;5200;43.236;27.986;2023-04-08T10:40:39;100609.97;;;13.41;73.92
10310;BME280;5200;43.236;27.986;2023-04-08T10:43:07;100610.75;;;12.93;72.35
10310;BME280;5200;43.236;27.986;2023-04-08T10:45:35;100619.59;;;12.53;77.20
10310;BME280;5200;43.236;27.986;2023-04-08T10:48:18;100615.06;;;12.24;80.95
10310;BME280;5200;43.236;27.986;2023-04-08T10:50:51;100616.78;;;11.95;80.53
10310;BME280;5200;43.236;27.986;2023-04-08T10:53:24;100593.19;;;11.51;83.45
10310;BME280;5200;43.236;27.986;2023-04-08T10:55:51;100625.63;;;11.52;81.64
10310;BME280;5200;43.236;27.986;2023-04-08T10:58:18;100629.19;;;11.62;86.36
10310;BME280;5200;43.236;27.986;2023-04-08T11:00:45;100627.72;;;11.90;84.58
10310;BME280;5200;43.236;27.986;2023-04-08T11:03:12;100623.69;;;12.26;80.44
10310;BME280;5200;43.236;27.986;2023-04-08T11:05:41;100626.75;;;12.32;81.08
10310;BME280;5200;43.236;27.986;2023-04-08T11:08:08;100607.34;;;12.33;80.48
10310;BME280;5200;43.236;27.986;2023-04-08T11:10:38;100605.25;;;12.36;77.69
10310;BME280;5200;43.236;27.986;2023-04-08T11:13:06;100604.94;;;12.30;80.03
10310;BME280;5200;43.236;27.986;2023-04-08T11:15:34;100604.91;;;12.20;81.32
10310;BME280;5200;43.236;27.986;2023-04-08T11:18:02;100598.91;;;12.08;78.44
10310;BME280;5200;43.236;27.986;2023-04-08T11:20:29;100615.00;;;12.05;78.47
10310;BME280;5200;43.236;27.986;2023-04-08T11:23:00;100608.97;;;11.93;81.84
10310;BME280;5200;43.236;27.986;2023-04-08T11:25:27;100625.56;;;11.63;82.82
10310;BME280;5200;43.236;27.986;2023-04-08T11:27:54;100606.25;;;10.99;86.17
10310;BME280;5200;43.236;27.986;2023-04-08T11:30:21;100614.78;;;10.92;89.80
10310;BME280;5200;43.236;27.986;2023-04-08T11:32:48;100603.47;;;10.80;91.37
10310;BME280;5200;43.236;27.986;2023-04-08T11:35:16;100606.06;;;10.91;92.93
10310;BME280;5200;43.236;27.986;2023-04-08T11:37:43;100606.50;;;10.96;93.00
10310;BME280;5200;43.236;27.986;2023-04-08T11:40:19;100601.06;;;10.77;93.91
10310;BME280;5200;43.236;27.986;2023-04-08T11:42:46;100596.72;;;10.87;92.44
10310;BME280;5200;43.236;27.986;2023-04-08T11:45:14;100598.69;;;11.06;93.29
10310;BME280;5200;43.236;27.986;2023-04-08T11:47:41;100602.94;;;11.39;90.43
10310;BME280;5200;43.236;27.986;2023-04-08T11:50:09;100596.84;;;11.60;87.14
10310;BME280;5200;43.236;27.986;2023-04-08T11:52:43;100591.13;;;11.76;86.22
10310;BME280;5200;43.236;27.986;2023-04-08T11:55:20;100592.78;;;11.77;85.78
10310;BME280;5200;43.236;27.986;2023-04-08T11:57:47;100579.72;;;11.75;85.81
10310;BME280;5200;43.236;27.986;2023-04-08T12:00:15;100576.38;;;11.73;83.23
10310;BME280;5200;43.236;27.986;2023-04-08T12:02:42;100584.00;;;11.67;82.03
10310;BME280;5200;43.236;27.986;2023-04-08T12:05:09;100579.56;;;11.25;83.44
10310;BME280;5200;43.236;27.986;2023-04-08T12:07:36;100576.53;;;11.09;85.95
10310;BME280;5200;43.236;27.986;2023-04-08T12:10:03;100584.63;;;11.17;85.71
10310;BME280;5200;43.236;27.986;2023-04-08T12:12:32;100580.59;;;11.13;85.11
10310;BME280;5200;43.236;27.986;2023-04-08T12:14:58;100575.09;;;11.05;85.18
10310;BME280;5200;43.236;27.986;2023-04-08T12:17:25;100558.69;;;11.12;80.69
10310;BME280;5200;43.236;27.986;2023-04-08T12:19:52;100579.34;;;11.38;80.22
10310;BME280;5200;43.236;27.986;2023-04-08T12:22:19;100561.56;;;11.30;76.82
10310;BME280;5200;43.236;27.986;2023-04-08T12:24:46;100571.59;;;11.36;79.43
10310;BME280;5200;43.236;27.986;2023-04-08T12:27:12;100574.25;;;11.36;79.95
10310;BME280;5200;43.236;27.986;2023-04-08T12:29:41;100567.09;;;11.27;80.47
10310;BME280;5200;43.236;27.986;2023-04-08T12:32:08;100570.59;;;10.95;84.17
10310;BME280;5200;43.236;27.986;2023-04-08T12:34:35;100561.50;;;10.67;85.27
10310;BME280;5200;43.236;27.986;2023-04-08T12:37:01;100559.47;;;10.71;87.07
10310;BME280;5200;43.236;27.986;2023-04-08T12:39:28;100552.00;;;10.44;92.84
10310;BME280;5200;43.236;27.986;2023-04-08T12:41:55;100550.81;;;10.36;90.96
10310;BME280;5200;43.236;27.986;2023-04-08T12:44:22;100555.91;;;10.61;91.45
10310;BME280;5200;43.236;27.986;2023-04-08T12:46:50;100545.03;;;10.54;91.34
10310;BME280;5200;43.236;27.986;2023-04-08T12:49:17;100544.84;;;10.23;94.09
10310;BME280;5200;43.236;27.986;2023-04-08T12:51:44;100546.91;;;9.97;97.63
10310;BME280;5200;43.236;27.986;2023-04-08T12:54:11;100549.41;;;9.87;93.72
10310;BME280;5200;43.236;27.986;2023-04-08T12:56:38;100535.22;;;9.79;100.00
10310;BME280;5200;43.236;27.986;2023-04-08T12:59:04;100532.31;;;9.82;100.00
10310;BME280;5200;43.236;27.986;2023-04-08T13:01:31;100536.97;;;10.01;100.00